createdAt,value
2023-05-21T00:00:27.744Z,0.57
2023-05-21T00:02:56.408Z,0.80
2023-05-21T00:05:26.771Z,0.60
2023-05-21T00:07:56.127Z,0.50
2023-05-21T00:10:24.696Z,0.95
2023-05-21T00:12:53.437Z,0.50
2023-05-21T00:15:22.014Z,0.30
2023-05-21T00:17:50.728Z,0.80
2023-05-21T00:20:19.374Z,0.90
2023-05-21T00:22:49.405Z,0.90
2023-05-21T00:25:18.105Z,0.60
2023-05-21T00:27:46.688Z,0.70
2023-05-21T00:30:16.456Z,0.52
2023-05-21T00:32:45.227Z,0.40
2023-05-21T00:35:14.180Z,0.60
2023-05-21T00:37:42.947Z,0.40
2023-05-21T00:40:14.114Z,0.30
2023-05-21T00:45:11.571Z,0.30
2023-05-21T00:47:42.011Z,0.52
2023-05-21T00:50:12.324Z,0.55
2023-05-21T00:52:42.990Z,0.40
2023-05-21T00:55:13.576Z,0.40
2023-05-21T00:57:43.013Z,0.40
2023-05-21T01:00:13.039Z,0.60
2023-05-21T01:02:42.375Z,0.40
2023-05-21T01:05:12.038Z,0.50
2023-05-21T01:07:42.798Z,0.60
2023-05-21T01:10:13.607Z,0.50
2023-05-21T01:12:45.248Z,0.77
2023-05-21T01:15:14.418Z,0.40
2023-05-21T01:17:46.285Z,0.88
2023-05-21T01:20:18.495Z,0.47
2023-05-21T01:22:54.503Z,0.43
2023-05-21T01:25:24.396Z,0.45
2023-05-21T01:27:53.394Z,0.60
2023-05-21T01:30:23.698Z,0.40
2023-05-21T01:33:02.123Z,0.43
2023-05-21T01:35:35.171Z,0.40
2023-05-21T01:38:13.753Z,0.43
2023-05-21T01:40:49.295Z,0.50
2023-05-21T01:43:18.829Z,0.50
2023-05-21T01:45:48.981Z,0.63
2023-05-21T01:48:18.931Z,0.65
2023-05-21T01:50:48.908Z,0.38
2023-05-21T01:53:18.995Z,0.50
2023-05-21T01:55:47.650Z,0.55
2023-05-21T01:58:17.190Z,0.40
2023-05-21T02:00:46.887Z,0.40
2023-05-21T02:03:16.728Z,0.47
2023-05-21T02:05:45.734Z,0.63
2023-05-21T02:08:15.505Z,0.40
2023-05-21T02:10:45.680Z,0.55
2023-05-21T02:13:14.461Z,0.57
2023-05-21T02:15:43.401Z,0.60
2023-05-21T02:18:12.031Z,0.40
2023-05-21T02:20:40.769Z,0.60
2023-05-21T02:23:09.379Z,0.68
2023-05-21T02:25:38.333Z,0.52
2023-05-21T02:28:08.585Z,0.40
2023-05-21T02:30:37.391Z,0.67
2023-05-21T02:33:06.091Z,0.82
2023-05-21T02:35:35.472Z,0.63
2023-05-21T02:38:04.153Z,0.38
2023-05-21T02:40:33.398Z,0.75
2023-05-21T02:43:01.945Z,1.00
2023-05-21T02:45:34.701Z,0.70
2023-05-21T02:48:03.398Z,0.57
2023-05-21T02:50:36.320Z,0.90
2023-05-21T02:53:05.032Z,0.93
2023-05-21T02:55:34.444Z,1.20
2023-05-21T02:58:03.747Z,0.52
2023-05-21T03:00:34.027Z,0.30
2023-05-21T03:03:02.950Z,0.63
2023-05-21T03:05:31.901Z,0.70
2023-05-21T03:08:00.533Z,1.02
2023-05-21T03:10:29.186Z,0.73
2023-05-21T03:12:57.852Z,0.80
2023-05-21T03:15:26.468Z,0.82
2023-05-21T03:17:57.331Z,1.23
2023-05-21T03:20:27.111Z,1.05
2023-05-21T03:22:56.281Z,0.70
2023-05-21T03:25:25.464Z,1.23
2023-05-21T03:27:56.013Z,0.90
2023-05-21T03:30:49.884Z,1.17
2023-05-21T03:33:35.160Z,1.00
2023-05-21T03:36:13.052Z,1.13
2023-05-21T03:38:41.709Z,1.33
2023-05-21T03:41:11.771Z,1.27
2023-05-21T03:43:42.153Z,1.27
2023-05-21T03:46:10.924Z,1.20
2023-05-21T03:49:05.092Z,1.00
2023-05-21T03:51:35.347Z,1.42
2023-05-21T03:54:04.148Z,1.73
2023-05-21T03:56:33.538Z,1.73
2023-05-21T03:59:02.666Z,1.90
2023-05-21T04:01:33.246Z,2.38
2023-05-21T04:06:33.341Z,1.98
2023-05-21T04:09:02.043Z,1.93
2023-05-21T04:11:31.582Z,2.13
2023-05-21T04:14:00.240Z,1.83
2023-05-21T04:16:28.932Z,1.50
2023-05-21T04:18:57.653Z,1.80
2023-05-21T04:21:28.494Z,1.60
2023-05-21T04:23:58.717Z,1.98
2023-05-21T04:26:42.580Z,1.92
2023-05-21T04:29:11.909Z,1.23
2023-05-21T04:31:40.657Z,1.30
2023-05-21T04:34:09.437Z,1.42
2023-05-21T04:36:38.127Z,1.35
2023-05-21T04:39:08.522Z,1.27
2023-05-21T04:41:38.712Z,2.15
2023-05-21T04:44:09.395Z,1.30
2023-05-21T04:46:41.000Z,1.30
2023-05-21T04:49:11.790Z,1.30
2023-05-21T04:51:40.770Z,0.88
2023-05-21T04:54:11.086Z,1.10
2023-05-21T04:56:39.812Z,1.20
2023-05-21T04:59:08.581Z,1.23
2023-05-21T05:01:38.743Z,1.80
2023-05-21T05:04:07.848Z,1.38
2023-05-21T05:06:36.670Z,2.53
2023-05-21T05:09:05.959Z,3.45
2023-05-21T05:11:36.230Z,2.13
2023-05-21T05:16:35.835Z,1.38
2023-05-21T05:19:04.686Z,0.95
2023-05-21T05:21:33.448Z,0.93
2023-05-21T05:24:02.426Z,1.13
2023-05-21T05:29:03.508Z,1.42
2023-05-21T05:31:32.353Z,1.30
2023-05-21T05:34:01.440Z,0.93
2023-05-21T05:36:31.655Z,0.77
2023-05-21T05:39:00.512Z,1.10
2023-05-21T05:41:29.357Z,0.93
2023-05-21T05:43:58.037Z,0.60
2023-05-21T05:46:32.341Z,0.60
2023-05-21T05:49:01.162Z,0.70
2023-05-21T05:51:30.415Z,0.57
2023-05-21T05:53:59.288Z,0.40
2023-05-21T05:56:28.124Z,0.63
2023-05-21T05:58:56.764Z,0.43
2023-05-21T06:01:26.501Z,0.68
2023-05-21T06:03:57.584Z,0.70
2023-05-21T06:06:26.839Z,0.45
2023-05-21T06:08:55.783Z,0.40
2023-05-21T06:11:25.849Z,0.50
2023-05-21T06:13:54.459Z,0.35
2023-05-21T06:16:23.832Z,0.43
2023-05-21T06:18:52.572Z,0.35
2023-05-21T06:21:22.748Z,0.60
2023-05-21T06:23:51.390Z,0.53
2023-05-21T06:26:20.489Z,0.52
2023-05-21T06:28:51.105Z,0.30
2023-05-21T06:31:22.638Z,0.40
2023-05-21T06:33:51.510Z,0.30
2023-05-21T06:36:20.300Z,0.47
2023-05-21T06:38:51.016Z,0.57
2023-05-21T06:41:19.671Z,0.37
2023-05-21T06:43:52.780Z,0.47
2023-05-21T06:46:40.239Z,0.30
2023-05-21T06:49:11.879Z,0.40
2023-05-21T06:51:42.249Z,0.30
2023-05-21T06:54:14.462Z,0.47
2023-05-21T06:56:43.692Z,0.30
2023-05-21T06:59:12.439Z,0.25
2023-05-21T07:01:42.811Z,0.30
2023-05-21T07:04:11.862Z,0.30
2023-05-21T07:06:41.953Z,0.77
2023-05-21T07:09:10.728Z,0.43
2023-05-21T07:11:41.378Z,0.40
2023-05-21T07:14:11.552Z,0.20
2023-05-21T07:16:40.628Z,0.40
2023-05-21T07:19:10.200Z,0.20
2023-05-21T07:21:39.368Z,0.22
2023-05-21T07:24:09.471Z,0.28
2023-05-21T07:26:42.357Z,0.22
2023-05-21T07:29:12.650Z,0.20
2023-05-21T07:31:41.375Z,0.20
2023-05-21T07:34:10.130Z,0.30
2023-05-21T07:36:40.772Z,0.30
2023-05-21T07:39:09.599Z,0.20
2023-05-21T07:41:39.506Z,0.20
2023-05-21T07:44:11.702Z,0.50
2023-05-21T07:46:43.755Z,0.38
2023-05-21T07:49:17.152Z,0.30
2023-05-21T07:51:47.743Z,0.30
2023-05-21T07:54:17.673Z,0.43
2023-05-21T07:56:47.109Z,0.45
2023-05-21T07:59:31.984Z,0.47
2023-05-21T08:02:01.082Z,0.32
2023-05-21T08:04:29.777Z,0.25
2023-05-21T08:06:58.417Z,0.40
2023-05-21T08:09:26.952Z,0.10
2023-05-21T08:11:55.804Z,0.25
2023-05-21T08:14:24.310Z,0.40
2023-05-21T08:16:54.358Z,0.30
2023-05-21T08:19:23.236Z,0.25
2023-05-21T08:21:53.063Z,0.20
2023-05-21T08:24:23.439Z,0.20
2023-05-21T08:26:53.615Z,0.20
2023-05-21T08:29:22.273Z,0.50
2023-05-21T08:31:51.130Z,0.20
2023-05-21T08:34:21.188Z,0.17
2023-05-21T08:36:59.615Z,0.32
2023-05-21T08:39:50.987Z,0.30
2023-05-21T08:45:07.331Z,0.32
2023-05-21T08:47:37.652Z,0.30
2023-05-21T08:50:11.824Z,0.20
2023-05-21T08:52:41.089Z,0.20
2023-05-21T08:55:10.955Z,0.10
2023-05-21T09:00:12.607Z,0.30
2023-05-21T09:02:44.251Z,0.20
2023-05-21T09:05:16.163Z,0.30
2023-05-21T09:07:51.061Z,0.40
2023-05-21T09:10:37.647Z,0.30
2023-05-21T09:13:08.159Z,0.28
2023-05-21T09:15:37.789Z,0.30
2023-05-21T09:18:07.815Z,0.20
2023-05-21T09:20:47.159Z,0.30
2023-05-21T09:23:19.094Z,0.30
2023-05-21T09:25:49.659Z,0.32
2023-05-21T09:28:26.802Z,0.30
2023-05-21T09:30:55.400Z,0.30
2023-05-21T09:33:29.842Z,0.28
2023-05-21T09:36:00.467Z,0.40
2023-05-21T09:38:29.665Z,0.20
2023-05-21T09:40:58.913Z,0.32
2023-05-21T09:43:28.711Z,0.30
2023-05-21T09:46:00.417Z,0.30
2023-05-21T09:48:37.314Z,0.40
2023-05-21T09:51:14.917Z,0.30
2023-05-21T09:53:50.108Z,0.32
2023-05-21T09:56:23.809Z,0.57
2023-05-21T09:58:56.106Z,0.30
2023-05-21T10:01:26.242Z,0.40
2023-05-21T10:03:57.689Z,0.43
2023-05-21T10:06:28.953Z,0.60
2023-05-21T10:08:59.536Z,0.32
2023-05-21T10:11:32.066Z,0.40
2023-05-21T10:14:06.244Z,0.40
2023-05-21T10:16:36.468Z,0.40
2023-05-21T10:19:06.195Z,0.35
2023-05-21T10:21:36.492Z,0.25
2023-05-21T10:24:05.669Z,0.47
2023-05-21T10:26:34.670Z,0.55
2023-05-21T10:29:04.447Z,0.45
2023-05-21T10:31:33.584Z,0.25
2023-05-21T10:34:06.230Z,0.40
2023-05-21T10:36:38.031Z,0.50
2023-05-21T10:39:09.857Z,0.40
2023-05-21T10:41:49.825Z,0.40
2023-05-21T10:44:28.482Z,0.22
2023-05-21T10:47:15.413Z,0.30
2023-05-21T10:50:00.675Z,0.35
2023-05-21T10:52:52.073Z,0.40
2023-05-21T10:55:34.990Z,0.20
2023-05-21T10:58:33.906Z,0.30
2023-05-21T11:01:04.407Z,0.30
2023-05-21T11:03:37.408Z,0.30
2023-05-21T11:06:08.821Z,0.25
2023-05-21T11:11:07.782Z,0.20
2023-05-21T11:13:51.170Z,0.20
2023-05-21T11:16:22.321Z,0.28
2023-05-21T11:19:04.463Z,0.20
2023-05-21T11:21:36.206Z,0.20
2023-05-21T11:24:11.303Z,0.60
2023-05-21T11:27:05.020Z,0.20
2023-05-21T11:29:44.655Z,0.40
2023-05-21T11:32:15.641Z,0.30
2023-05-21T11:34:47.288Z,0.40
2023-05-21T11:37:34.620Z,0.30
2023-05-21T11:40:31.172Z,0.47
2023-05-21T11:42:59.800Z,1.40
2023-05-21T11:45:32.249Z,0.50
2023-05-21T11:48:01.684Z,0.30
2023-05-21T11:50:33.972Z,0.45
2023-05-21T11:53:02.859Z,2.33
2023-05-21T11:55:33.391Z,3.75
2023-05-21T11:58:02.988Z,2.03
2023-05-21T12:00:31.530Z,6.57
2023-05-21T12:03:00.224Z,1.80
2023-05-21T12:05:29.121Z,0.60
2023-05-21T12:07:58.615Z,0.43
2023-05-21T12:10:27.418Z,0.20
2023-05-21T12:12:57.837Z,0.30
2023-05-21T12:15:28.341Z,0.50
2023-05-21T12:17:58.092Z,0.20
2023-05-21T12:20:29.878Z,0.30
2023-05-21T12:23:01.655Z,0.32
2023-05-21T12:25:32.229Z,0.25
2023-05-21T12:28:03.772Z,0.20
2023-05-21T12:30:32.966Z,0.20
2023-05-21T12:33:03.344Z,0.30
2023-05-21T12:35:32.756Z,0.30
2023-05-21T12:38:03.292Z,0.20
2023-05-21T12:40:39.598Z,0.30
2023-05-21T12:43:10.286Z,0.40
2023-05-21T12:45:41.076Z,0.30
2023-05-21T12:48:10.006Z,0.20
2023-05-21T12:50:42.225Z,0.30
2023-05-21T12:53:11.400Z,0.30
2023-05-21T12:55:40.825Z,0.28
2023-05-21T12:58:15.663Z,0.28
2023-05-21T13:00:45.683Z,0.30
2023-05-21T13:03:14.685Z,0.25
2023-05-21T13:05:43.359Z,0.40
2023-05-21T13:08:14.572Z,0.25
2023-05-21T13:10:43.504Z,0.37
2023-05-21T13:13:13.512Z,0.30
2023-05-21T13:15:42.080Z,0.30
2023-05-21T13:18:12.635Z,0.35
2023-05-21T13:20:41.340Z,0.40
2023-05-21T13:23:11.446Z,0.50
2023-05-21T13:25:41.368Z,0.30
2023-05-21T13:28:10.708Z,0.15
2023-05-21T13:30:40.863Z,0.20
2023-05-21T13:33:09.571Z,0.20
2023-05-21T13:35:38.158Z,0.40
2023-05-21T13:38:06.681Z,0.20
2023-05-21T13:40:38.064Z,0.20
2023-05-21T13:43:07.445Z,0.20
2023-05-21T13:45:36.050Z,0.20
2023-05-21T13:48:06.779Z,0.30
2023-05-21T13:50:35.747Z,0.20
2023-05-21T13:53:04.574Z,0.38
2023-05-21T13:55:33.095Z,0.20
2023-05-21T13:58:01.556Z,0.20
2023-05-21T14:00:30.034Z,0.20
2023-05-21T14:02:58.854Z,0.40
2023-05-21T14:05:28.923Z,0.57
2023-05-21T14:07:57.384Z,0.35
2023-05-21T14:10:26.103Z,0.38
2023-05-21T14:12:59.212Z,0.30
2023-05-21T14:15:33.673Z,0.30
2023-05-21T14:18:02.319Z,0.20
2023-05-21T14:20:32.393Z,0.30
2023-05-21T14:23:01.012Z,0.30
2023-05-21T14:25:29.679Z,0.35
2023-05-21T14:27:58.372Z,0.32
2023-05-21T14:30:26.929Z,0.20
2023-05-21T14:32:57.815Z,0.30
2023-05-21T14:35:26.556Z,0.20
2023-05-21T14:37:56.590Z,0.30
2023-05-21T14:40:25.218Z,0.40
2023-05-21T14:42:54.491Z,0.63
2023-05-21T14:45:23.149Z,1.70
2023-05-21T14:47:51.897Z,0.98
2023-05-21T14:50:20.495Z,3.72
2023-05-21T14:52:49.076Z,0.68
2023-05-21T14:55:22.523Z,13.13
2023-05-21T14:57:51.257Z,0.40
2023-05-21T15:00:19.995Z,21.98
2023-05-21T15:02:48.940Z,7.60
2023-05-21T15:05:17.745Z,1.77
2023-05-21T15:07:46.331Z,0.52
2023-05-21T15:10:17.280Z,0.30
2023-05-21T15:12:48.745Z,0.80
2023-05-21T15:15:17.519Z,0.43
2023-05-21T15:17:46.288Z,0.20
2023-05-21T15:20:15.659Z,0.30
2023-05-21T15:22:44.300Z,0.30
2023-05-21T15:25:13.159Z,0.40
2023-05-21T15:27:41.903Z,0.40
2023-05-21T15:30:12.702Z,0.45
2023-05-21T15:35:10.494Z,0.50
2023-05-21T15:37:39.163Z,0.20
2023-05-21T15:40:09.440Z,0.30
2023-05-21T15:42:38.033Z,0.30
2023-05-21T15:45:07.514Z,31.30
2023-05-21T15:47:42.719Z,32.92
2023-05-21T15:50:12.677Z,5.43
2023-05-21T15:52:43.003Z,14.90
2023-05-21T15:55:11.721Z,219.63
2023-05-21T15:57:40.338Z,654.10
2023-05-21T16:00:11.021Z,265.52
2023-05-21T16:02:42.299Z,39.67
2023-05-21T16:05:11.535Z,9.57
2023-05-21T16:07:40.098Z,3.33
2023-05-21T16:10:11.728Z,2.53
2023-05-21T16:12:40.514Z,5.05
2023-05-21T16:15:09.928Z,14.77
2023-05-21T16:17:38.689Z,7.30
2023-05-21T16:20:09.906Z,4.45
2023-05-21T16:22:38.558Z,1.30
2023-05-21T16:25:08.251Z,0.90
2023-05-21T16:27:36.800Z,0.28
2023-05-21T16:30:07.619Z,1.20
2023-05-21T16:35:05.009Z,0.50
2023-05-21T16:37:35.560Z,0.20
2023-05-21T16:40:04.879Z,0.25
2023-05-21T16:42:33.442Z,0.25
2023-05-21T16:45:02.043Z,0.40
2023-05-21T16:47:30.620Z,4.25
2023-05-21T16:49:59.290Z,0.90
2023-05-21T16:52:28.046Z,0.28
2023-05-21T16:54:58.087Z,0.30
2023-05-21T16:57:26.626Z,0.60
2023-05-21T16:59:55.224Z,0.30
2023-05-21T17:02:24.604Z,0.20
2023-05-21T17:04:53.195Z,0.30
2023-05-21T17:07:21.962Z,0.30
2023-05-21T17:09:50.837Z,0.35
2023-05-21T17:12:20.888Z,0.20
2023-05-21T17:14:49.463Z,0.20
2023-05-21T17:17:18.045Z,0.40
2023-05-21T17:19:46.609Z,0.30
2023-05-21T17:22:15.617Z,0.30
2023-05-21T17:24:44.241Z,0.50
2023-05-21T17:27:12.945Z,0.38
2023-05-21T17:29:42.954Z,0.30
2023-05-21T17:32:12.526Z,0.30
2023-05-21T17:34:41.123Z,0.40
2023-05-21T17:37:09.747Z,0.20
2023-05-21T17:39:38.285Z,0.30
2023-05-21T17:42:07.413Z,0.28
2023-05-21T17:44:36.025Z,0.47
2023-05-21T17:47:08.305Z,0.43
2023-05-21T17:49:36.972Z,0.40
2023-05-21T17:52:06.024Z,0.40
2023-05-21T17:54:35.253Z,0.40
2023-05-21T17:57:04.076Z,0.40
2023-05-21T17:59:32.768Z,0.30
2023-05-21T18:02:02.398Z,0.32
2023-05-21T18:04:32.445Z,0.40
2023-05-21T18:07:01.327Z,0.55
2023-05-21T18:09:30.010Z,0.50
2023-05-21T18:11:59.841Z,0.40
2023-05-21T18:14:29.479Z,0.30
2023-05-21T18:16:58.193Z,0.40
2023-05-21T18:19:26.929Z,0.65
2023-05-21T18:21:57.145Z,0.30
2023-05-21T18:24:25.966Z,0.25
2023-05-21T18:26:54.535Z,0.40
2023-05-21T18:29:23.081Z,0.40
2023-05-21T18:31:51.826Z,0.40
2023-05-21T18:34:20.297Z,0.35
2023-05-21T18:36:48.863Z,0.35
2023-05-21T18:39:18.838Z,0.52
2023-05-21T18:41:47.314Z,0.40
2023-05-21T18:44:16.335Z,0.50
2023-05-21T18:46:45.468Z,0.40
2023-05-21T18:49:13.988Z,0.40
2023-05-21T18:51:42.621Z,1.48
2023-05-21T18:54:11.228Z,0.50
2023-05-21T18:56:41.298Z,0.45
2023-05-21T18:59:09.941Z,0.60
2023-05-21T19:01:38.553Z,0.50
2023-05-21T19:04:07.114Z,0.43
2023-05-21T19:06:36.114Z,0.38
2023-05-21T19:09:04.979Z,0.32
2023-05-21T19:11:34.608Z,0.40
2023-05-21T19:14:04.737Z,0.50
2023-05-21T19:16:33.436Z,0.38
2023-05-21T19:19:02.504Z,0.25
2023-05-21T19:21:31.687Z,0.50
2023-05-21T19:24:00.332Z,0.65
2023-05-21T19:26:29.127Z,0.40
2023-05-21T19:28:57.779Z,0.40
2023-05-21T19:31:28.059Z,0.47
2023-05-21T19:33:56.786Z,0.57
2023-05-21T19:36:26.881Z,0.50
2023-05-21T19:38:59.049Z,0.55
2023-05-21T19:41:27.902Z,0.80
2023-05-21T19:43:56.422Z,0.57
2023-05-21T19:46:25.274Z,0.40
2023-05-21T19:48:55.282Z,0.60
2023-05-21T19:51:24.008Z,0.50
2023-05-21T19:53:52.723Z,0.40
2023-05-21T19:56:22.117Z,0.50
2023-05-21T19:58:50.769Z,0.63
2023-05-21T20:01:19.565Z,0.43
2023-05-21T20:03:48.453Z,0.38
2023-05-21T20:06:20.876Z,0.50
2023-05-21T20:08:49.446Z,0.40
2023-05-21T20:11:18.000Z,0.70
2023-05-21T20:13:50.261Z,0.40
2023-05-21T20:16:20.279Z,0.40
2023-05-21T20:18:49.305Z,0.32
2023-05-21T20:21:20.510Z,0.40
2023-05-21T20:23:49.887Z,0.50
2023-05-21T20:26:19.773Z,0.43
2023-05-21T20:28:48.480Z,0.57
2023-05-21T20:31:17.074Z,0.40
2023-05-21T20:33:46.575Z,0.47
2023-05-21T20:36:15.564Z,0.50
2023-05-21T20:38:45.810Z,0.32
2023-05-21T20:41:15.134Z,0.45
2023-05-21T20:43:46.129Z,0.40
2023-05-21T20:46:17.874Z,0.70
2023-05-21T20:48:47.510Z,0.60
2023-05-21T20:51:16.044Z,1.27
2023-05-21T20:53:46.121Z,0.82
2023-05-21T20:56:15.091Z,1.33
2023-05-21T20:58:43.977Z,1.33
2023-05-21T21:01:14.640Z,0.85
2023-05-21T21:03:45.857Z,0.45
2023-05-21T21:06:14.803Z,0.50
2023-05-21T21:08:46.357Z,0.98
2023-05-21T21:11:16.462Z,0.70
2023-05-21T21:13:44.938Z,0.73
2023-05-21T21:16:13.608Z,0.60
2023-05-21T21:18:42.347Z,0.80
2023-05-21T21:21:10.944Z,0.65
2023-05-21T21:23:39.677Z,0.60
2023-05-21T21:26:08.365Z,0.60
2023-05-21T21:28:38.379Z,0.77
2023-05-21T21:31:07.128Z,0.80
2023-05-21T21:33:35.511Z,0.90
2023-05-21T21:36:04.027Z,0.80
2023-05-21T21:38:32.708Z,1.05
2023-05-21T21:41:01.372Z,0.70
2023-05-21T21:43:29.884Z,0.68
2023-05-21T21:46:00.216Z,0.60
2023-05-21T21:48:28.832Z,0.95
2023-05-21T21:50:57.663Z,1.10
2023-05-21T21:53:26.262Z,0.88
2023-05-21T21:55:56.058Z,0.90
2023-05-21T21:58:27.923Z,1.00
2023-05-21T22:00:56.629Z,0.70
2023-05-21T22:03:26.627Z,1.20
2023-05-21T22:05:55.717Z,0.60
2023-05-21T22:08:25.762Z,0.90
2023-05-21T22:10:54.390Z,0.67
2023-05-21T22:13:23.002Z,0.85
2023-05-21T22:15:51.752Z,1.52
2023-05-21T22:18:28.440Z,1.20
2023-05-21T22:21:10.197Z,1.30
2023-05-21T22:23:39.468Z,0.60
2023-05-21T22:26:08.197Z,1.10
2023-05-21T22:28:37.054Z,0.80
2023-05-21T22:31:06.052Z,1.10
2023-05-21T22:33:34.728Z,1.00
2023-05-21T22:36:03.208Z,0.93
2023-05-21T22:38:33.185Z,0.75
2023-05-21T22:41:01.808Z,1.35
2023-05-21T22:43:30.420Z,1.17
2023-05-21T22:45:58.888Z,1.15
2023-05-21T22:48:30.727Z,1.10
2023-05-21T22:50:59.652Z,1.08
2023-05-21T22:53:28.125Z,0.95
2023-05-21T22:55:58.304Z,0.90
2023-05-21T22:58:27.011Z,1.70
2023-05-21T23:00:55.646Z,1.75
2023-05-21T23:03:24.231Z,1.40
2023-05-21T23:05:52.883Z,1.20
2023-05-21T23:08:21.391Z,1.73
2023-05-21T23:10:49.993Z,1.27
2023-05-21T23:13:20.029Z,1.67
2023-05-21T23:15:48.725Z,1.92
2023-05-21T23:18:17.646Z,1.70
2023-05-21T23:20:46.317Z,2.20
2023-05-21T23:23:14.775Z,1.45
2023-05-21T23:25:43.372Z,1.60
2023-05-21T23:28:11.833Z,1.35
2023-05-21T23:30:41.945Z,1.45
2023-05-21T23:33:11.201Z,1.50
2023-05-21T23:35:39.714Z,1.70
2023-05-21T23:38:08.183Z,1.70
2023-05-21T23:40:37.393Z,1.38
2023-05-21T23:43:06.229Z,1.92
2023-05-21T23:45:34.922Z,1.70
2023-05-21T23:48:05.488Z,1.83
2023-05-21T23:50:34.241Z,2.03
2023-05-21T23:53:02.763Z,2.42
2023-05-21T23:55:31.348Z,1.55
2023-05-21T23:57:59.758Z,2.05
